Burke, South Dakota
Current Conditions -  °F | °C
As of 3:53 PM on Friday 31 Oct 2014 (Local Time) from KICR Reporting Station
Clear Clear  
Wind Chill: 37°   Ceiling: Unl
Heat Index: 45°   Visibility: 10mi
Dew Point: 11°   Wind: 21mph
Humidity: 25%   Direction: 150°SSE
Pressure: 30.36"   Gusts: 26mph
Location:  43.18°N, 99.29°W
Report Text: KICR 312053Z AUTO 15018G23KT 10SM CLR 07/M12 A3036 RMK AO2 SLP299 T00721117 56045
Loading
Personal Weather Stations






























Interactive Weather Map
Tropical Storm Tracking
New forecast layout! Learn more

10-Day Weather Forecast

Advertisements
Track Severe Weather on mobile